Espace membre
Imprimable
Namur, 24/09/2017, BEL - Trail Saint Jacques de Compostelle en Province de Namur
Liste des rapports > 25km - Classement
Recherche: Page: [1]
141 Entrées
 
Les réclamations ne sont plus acceptées, les résultats sont considérés comme définitifs.
RangNrNomAgeIOCLigueEquipeRéelTempsTkmMoy.ScrLocalité
1.2011BAUTERS BEN24BEL1:42:521:42:524:07 14.581SINT-DENIJS WESTREM
2.53CHARLIER JULIEN37BEL1:46:181:46:184:16 14.112ROCOURT
3.2071DIEGO CADELLI25BEL1:49:591:49:594:24 13.643LUSTIN
4.63DELOGE JEROME42BEL1:51:241:51:244:28 13.474
5.51DELHAYE SIMON20BEL2:00:452:00:454:50 12.425
6.60GILLAIN MBEL2:06:112:06:115:03 11.898
7.62HARDAS VINCENT29BEL2:06:172:06:175:04 11.889JUMET
8.2171ROBERT YVES47BEL2:07:552:07:555:07 11.7310AMAY
9.2125LEFER VINCENT38BEL2:08:402:08:405:09 11.6611VITRIVAL
10.4060DEVUYST MAX39BEL2:10:292:10:295:14 11.5012MALONNE
11.2098GREMES THOMAS34BEL2:11:292:11:295:16 11.4113VEZIN
12.2116JADOT GUILLAUME31BEL2:12:592:12:595:20 11.2814NAMUR
13.2048DANDOIS FABIAN39BEL2:15:012:15:015:25 11.1115VILLERS-LA-VILLE
14.2147MONIOTTE GILLES-ANTOINE47BEL2:16:162:16:165:28 11.0116VEDRIN
15.2096GORIS YVES38BEL2:17:112:17:115:30 10.9317SINT-LENAARTS
16.2097TOUSSAINT VINCENT39ESP2:18:512:18:515:34 10.8018NAMUR
17.2127LEITAO LUIZ47BRA2:18:542:18:545:34 10.8019HOEILAART
18.2160PIAT FABRICE32FRA2:18:552:18:555:34 10.8020LUSTIN
19.2040COLOT ETIENNE44BEL2:20:072:20:075:37 10.7121ERMETON/ BIERT
20.73QUITTELIER JASON27BEL2:20:222:20:225:37 10.6922
21.2085FRIPIAT BERNARD45BEL2:21:222:21:225:40 10.6123JAMBES
22.2088GASPARD MARC55BEL2:22:242:22:245:42 10.5325BOIS DE VILLERS
23.2111HOUGARDY BENOIT53BEL2:23:392:23:395:45 10.4426SUARLEE
24.2124LECOMTE NICOLAS34BEL2:24:292:24:295:47 10.3827GESVES
25.2075DORTHU HUGO39BEL2:24:332:24:335:47 10.3828GESVES
26.2179SNYERS DAMIEN30BEL2:25:522:25:525:51 10.2829JAMBES
27.2174RUHL SVEN47BEL2:26:112:26:115:51 10.2630MARBAIS
28.2023CANON MATHIEU41BEL2:26:182:26:185:52 10.2531BRUXELLES
29.2190VALENTIN VINCENT51BEL2:26:342:26:345:52 10.2332LUXEMBOURG
30.2082FEUARDANT DAVID26FRA2:28:392:28:395:57 10.0934EQUEURDREVILLE-HAINNEVILL
31.2193VAN DEN BULCKE STEVEN41BEL2:29:002:29:005:58 10.0735BELSELE
32.4008BRICHEUX BENJAMIN31BEL2:29:032:29:035:58 10.0636WATERMAEL-BOITSFORT
33.2118MATAGNE PIERRE-YVES34BEL2:30:132:30:136:01 9.9937SORÉE
34.2081FALQUE JOHN44BEL2:30:432:30:436:02 9.9538FLAWINNE
35.2001ALFATLI AYMERIC40BEL2:31:062:31:066:03 9.9339EVERE
36.2033CLINET PHILIPPE48BEL2:33:262:33:266:09 9.7841NAMUR
37.2106HENNUY STÉPHANE45BEL2:33:522:33:526:10 9.7542LESVE
38.2159PERIÈRE SALVATORE33BEL2:33:572:33:576:10 9.7443MARCINELLE
39.2035CLOTMAN THÉO15BEL2:34:392:34:396:12 9.7044GRAND-LEEZ
40.2034CLOTMAN FRÉDÉRIC49BEL2:34:392:34:396:12 9.7045GRAND-LEEZ
41.47WARNANT ALEXANDRE35BEL2:34:512:34:516:12 9.6946AISEMONT
42.2012BÉCUE GUILLAUME41BEL2:36:002:36:006:15 9.6248JAMBES
43.2134MAES NICOLAS31BEL2:36:542:36:546:17 9.5649SCHAERBEEK
44.2018BRASSEUR PAUL43BEL2:36:542:36:546:17 9.5651WAVRE
45.2041CONROTTE JEAN-FRANÇOIS41BEL2:37:272:37:276:18 9.5352HAMIPRE
46.2135MARCHAL ETIENNE62BEL2:37:462:37:466:19 9.5153GEDINNE
47.2158PERCHET PAUL25FRA2:37:542:37:546:19 9.5055PARIS
48.2053DECEULENEER CÉDRIC32BEL2:38:422:38:426:21 9.4557GODINNE
49.2006BAIANA GIANNI44ITA2:41:382:41:386:28 9.2858BIESME
50.2151NAUTS THIERRY35BEL2:41:512:41:516:29 9.2760GESVES
51.2058DENDAS PETER56BEL2:42:022:42:026:29 9.2661MALONNE
52.2126LEGROS FRÉDÉRIC44BEL2:42:242:42:246:30 9.2463WARNANT-DREYE
53.2103HAUBERT JULIEN37BEL2:42:252:42:256:30 9.2464THON
54.2196VAN MEEL WESSEL27NLD2:44:242:44:246:35 9.1265ZEVENBERGEN
55.2100HANOTTE JEAN57BEL2:45:012:45:016:37 9.0966NAMUR
56.2157PEETERS FRED38BEL2:46:282:46:286:40 9.0168BOUGE
57.2162PIETTE MICHAEL45BEL2:46:502:46:506:41 8.9969AGIMONT
58.2104HAULOTTE OLIVIER43BEL2:47:572:47:576:44 8.9370PERWEZ
59.2086FRIPIAT DIDIER40BEL2:47:592:47:596:44 8.9371NATOYE
60.2167QUINTIN JEAN-JACQUES56BEL2:47:592:47:596:44 8.9372INCOURT
61.2123LE BUSSY ROGER54BEL2:48:102:48:106:44 8.9273LIMAL
62.2131LORANT EMMANUEL55BEL2:48:182:48:186:44 8.9174MALONNE
63.2054DELBART EMMANUEL37BEL2:48:442:48:446:45 8.8976BURDINNE
64.2189VALCKE ALAIN50BEL2:48:442:48:446:45 8.8977WEZEMBEEL-OPPEM
65.2045CRANINX LUC51BEL2:49:212:49:216:47 8.8678SAINT-GEORGES-SUR-MEUSE
66.2013BIART QUENTIN37BEL2:49:282:49:286:47 8.8579DAUSSOULX
67.2110HOLOFFE DIDIER51BEL2:49:322:49:326:47 8.8580BRAINE-L'ALLEUD
68.2187TIMSONET MARC54BEL2:49:492:49:496:48 8.8381BEEZ
69.2060DEPRÉ JEAN-PIERRE49BEL2:50:592:50:596:51 8.7782GODINNE
70.49WILLEMS LUC56BEL2:51:182:51:186:52 8.7683ST-MARTIN
71.2007BARBIER FRÉDÉRIC43BEL2:52:112:52:116:54 8.7185BIESME
72.2140MAUEN PATRICK44BEL2:52:132:52:136:54 8.7186LESVE
73.2130LOIR DAVID38BEL2:52:142:52:146:54 8.7187BRUXELLES
74.2072DINON DOMINIQUE55BEL2:52:162:52:166:54 8.7188MONT-DISON
75.2188URBAIN JEROME36BEL2:52:172:52:176:54 8.7189BINCHE
76.2036COGET VINCENT50BEL2:52:412:52:416:55 8.6990PROFONDEVILLE
77.2145MOLITOR JEAN -MICHEL45BEL2:52:482:52:486:55 8.6891SPY
78.2052DEBROUX DOUGLAS42BEL2:53:072:53:076:56 8.6792OTTIGNIES
79.2073DODEMONT FABIAN40BEL2:53:082:53:086:56 8.6694HUY
80.2133MACHIELS PIERRE42BEL2:53:092:53:096:56 8.6695HUY
81.61NR 61BEL2:53:192:53:196:56 8.6597
82.2078DUMONT JEAN LOUIS61BEL2:53:202:53:206:56 8.6598PROFONDEVILLE
83.2092GHEYSEN NICK62BEL2:54:022:54:026:58 8.6299BRUXELLES
84.2019BRICHARD JEAN-YVES49BEL2:54:062:54:066:58 8.62100PROFONDEVILLE
85.2077DUBOIS PHILIPPE49FRA2:54:282:54:286:59 8.60101QUESNOY SUR DEULE
86.2109HEYMANS STEPHANE46BEL2:54:532:54:537:00 8.58102PONT-À-CELLES
87.2068DE WIT DIRK50NLD2:54:572:54:577:00 8.57103GORINCHEM
88.2009BASSEILLES OLIVIER40BEL2:54:582:54:587:00 8.57104BIOUL
89.2143MINE FABRICE44BEL2:54:582:54:587:00 8.57105BIOUL
90.2163PINON MANU38BEL2:54:582:54:587:00 8.57106BIOUL
91.2164PIROT QUENTIN28BEL2:55:052:55:057:01 8.57107HEMPTINNE
92.2128LENOIR JEAN-CLAUDE48BEL2:55:082:55:087:01 8.56108FLORIFFOUX
93.2121LAMBOTTE SEBASTIEN44BEL2:55:172:55:177:01 8.56110WALHAIN
94.2178SCHOENAERTS KRIS37BEL2:55:252:55:257:01 8.55112TONGEREN
95.2177SCHARPE CHARLES51BEL2:55:472:55:477:02 8.53114DONGELBERG
96.2070D'HEERE JEAN_CLAUDE52BEL2:56:352:56:357:04 8.50115ORP-JAUCHE
97.2153NEYMAN PASCAL49BEL2:56:512:56:517:05 8.48116SAINT-GÉRARD
98.2113HUWAERT YVES41BEL2:56:582:56:587:05 8.48117NEUFVILLES
99.2094GILLY LAURENT37BEL2:57:522:57:527:07 8.43120DION-VALMONT
100.2050DAUVIN SEBASTIEN39BEL2:58:082:58:087:08 8.42121NIVELLES
101.2144MOISE PATRICK57BEL3:01:053:01:057:15 8.28122BELGIQUE
102.2046DALCQ JEAN-CLAUDE54BEL3:02:233:02:237:18 8.23123WAVRE
103.2138MATHIEU GEORGES28BEL3:03:133:03:137:20 8.19124ARLON
104.2166PYCKE JONATHAN32BEL3:03:143:03:147:20 8.19125HUY
105.2137MARX GILLES29BEL3:03:403:03:407:21 8.17126FLAWINNE
106.2099HANNECART GRÉGORY36BEL3:04:083:04:087:22 8.15128BOIS-DE-VILLERS
107.75BENAZZI T23BEL3:04:573:04:577:24 8.11129
108.76CALLEUW S51BEL3:04:573:04:577:24 8.11130
109.2119KOSTER EDGAR42NLD3:05:133:05:137:25 8.10131LELYSTAD
110.2037COLIGNON CHARLES58BEL3:06:043:06:047:27 8.06132CHAMPION
111.2028CHARLIER JEAN-CHRISTOPHE51BEL3:06:263:06:267:28 8.05133NAMUR
112.2059DE NYS LAURENT47BEL3:08:553:08:557:34 7.94134CÉROUX-MOUSTY
113.2194VANDEVORST CLEMENT37BEL3:10:203:10:207:37 7.88137ASSESSE
114.2038COLLART FERNAND51BEL3:10:433:10:437:38 7.87139COURRIERE
115.67FERRETTI PASCAL58BEL3:10:473:10:477:38 7.86140DOUR
116.2181SPEECKAERT DAVID38BEL3:11:253:11:257:40 7.84143BRUXELLES
117.2042CORBIAUX BENJAMIN32BEL3:13:173:13:177:44 7.76147BOIS-DE-VILLERS
118.2191VANCOLEN YANNICK52BEL3:13:403:13:407:45 7.75149RAMILLIES
119.2004ANGELY GAËTAN70BEL3:14:533:14:537:48 7.70150WATERLOO
120.2112HUBERLAND JEAN-MARC45BEL3:17:253:17:257:54 7.60151SURICE
121.2091GHERAILLE JEAN-MARC51BEL3:17:493:17:497:55 7.58153BRAINE-L'ALLEUD
122.2067DEWEZ GAUTHIER31BEL3:19:183:19:187:59 7.53155WOLUWÉ ST-LAMBERT
123.2186THOMAS DOMINIQUE53BEL3:25:163:25:168:13 7.31163PROFONDEVILLE
124.2062DERY RICHARD50BEL3:25:183:25:188:13 7.31164BRUXELLES
125.2115JACOBS PIERRE57BEL3:26:193:26:198:16 7.27165BOSSIERE
125.2192VANDEN BEMDEN DIDIER48BEL3:26:193:26:198:16 7.27165EVERE
127.2090GERARD RENAUD46BEL3:27:003:27:008:17 7.25167LLN
128.2148MOREAUX PATRICK54BEL3:27:523:27:528:19 7.22169TAMINES
129.2170RICOUR STÉPHANE52BEL3:30:033:30:038:25 7.14173MAILLEN
130.2089GENDARME PHILIPPE52BEL3:32:253:32:258:30 7.06174VEDRIN
131.2051DAVREUX JEAN FRANCOIS48BEL3:37:423:37:428:43 6.89176NAMUR
132.2084FRABEL DAVID48BEL3:37:423:37:428:43 6.89177MONT SAINTE ALDEGONDE
133.2003ANDRE FRANCIS58BEL3:44:193:44:198:59 6.69179BELGRADE
134.2043CORBIAUX CHRISTOPHE38BEL3:45:453:45:459:02 6.64180BOIS-DE-VILLERS
135.2066DE WACHTER JEAN-FRANCOIS55BEL3:50:083:50:089:13 6.52181WATERLOO
136.2076DUBASIN JASON26BEL3:52:243:52:249:18 6.45183MIECRET
137.65CAPELLE LUDOVIC41BEL4:10:174:10:1710:01 5.99185LEERS NORD
138.64DEMINNE DANY45BEL4:10:364:10:3610:02 5.99186FLOREFFE
139.2169REDOUTÉ BÉNÉDICTE44BEL4:12:214:12:2110:06 5.94188JAUCHE
140.2027CAVALLARO ANTONINO40BEL4:20:474:20:4710:26 5.75190FOSSES LA VILLE
141.45VILANNI MICHEL70ITA4:31:414:31:4110:53 5.52191LA LOUVIERE
DNF: abandon; DSQ: disqualifié; Vitesse en km/h
Page: [1]